Strona główna
METAR-TAF:

METAR-TAF

Lotnisko :

Port lotniczy Banjarmasin

Banjarmasin, Indonezja

Szerokość geograficzna: 03-26-32S, Długość geograficzna: 114-45-45E, wysokość: 20 m

Aktualna obserwacja pogody

Raport powstał 11 godziny i 20 minut temu, godzina 16:30 UTC
Wiatr 3 kt od północ
Temperatura 25°C
Wilgotność 94%
Ciśnienie 1009 hPa
Widzialność: 7000 m

METAR: WAOO 091630Z 36003KT 7000 NCD 25/24 Q1009

czas: 10:50 (03:50 UTC)

Prognoza

Raport powstał 10 godziny i 50 minut temu, godzina 17:00 UTC
Prognoza ważna od 09 godzina 18 UTC do 10 godzina 18 UTC
Wiatr 5 kt od wschód
Widzialność 10 km lub więcej
Rozproszone chmury na wysokości 1800 ft

TAF: WAOO 091700Z 0918/1018 09005KT 9999 SCT018

Obserwacja i prognoza pogody dla ponad 4000 lotnisk (raport METAR i TAF).

Dostępne stacje oznaczono żółtymi i czerwonymi punktami na mapie.

Najedź kursorem aby zobaczyć nazwę stacji.

Kliknij aby zobaczyć obserwacje i prognozy pogody.

Aby zmienić mapę: kliknij na zielony przycisk z czarnym krzyżykiem, aby powiększyć; na zielony przycisk z myślnikiem, aby pomniejszyć; na zielone strzałki, aby przejść do map sąsiednich.


METAR-TAF: